To NAV CANADA Home Page Login to a new session Search on AWWS site Disclaimer Vers la page française équivalente Tips FAQ What's new on the site To the Forecasts and Observations / NOTAM section To "File a Flight Plan" website Publications and other links Update of the User's profile FIC Telephone Numbers My Weather Data Folder Route Weather Data Regional Weather Data Local Weather Data To the Forecasts and Observations / NOTAM section
Request Generated 11/13/2018 at 18:40:51 UTC . Weather information available at that time is displayed.

METAR/TAF

HAMILTON/ON    

SPECI CYHM 131820Z 33010KT 8SM -SN SCT014 OVC019 M01/M03 A3010 RMK SC3SC5 SLP206=
METAR CYHM 131800Z 34011KT 8SM -SN BKN014 OVC018 M01/M03 A3010 RMK SC7SC1 SLP204=
SPECI CYHM 131722Z 02012KT 15SM -SN BKN013 OVC019 M00/M03 A3009 RMK SC7SC1 SLP199=
METAR CYHM 131700Z 03009KT 330V040 15SM BKN013 OVC019 01/M01 A3009 RMK SC5SC3 SLP199=
SPECI CYHM 131651Z 33009KT 15SM SCT014 BKN019 01/M01 A3009 RMK SC4SC3 SLP199=
METAR CYHM 131600Z 32007KT 15SM BKN012 BKN021 OVC033 02/M00 A3009 RMK SC6SC1SC1 SLP199=

TAF CYHM 131738Z 1318/1418 03008KT P6SM -SHSN SCT012 OVC020 TEMPO
1318/1322 21/2SM -SHSN OVC012 PROB30 1318/1322 11/2SM -SHSN
FM132200 28012G22KT P6SM SCT040 TEMPO 1322/1323 3SM -SHSN BKN040
FM140400 27012G22KT P6SM -SHSN BKN040
FM141500 26012G22KT P6SM -SHSN BKN020 OVC030
RMK NXT FCST BY 140000Z=
Your time UTC time
Weather data provided by Environment Canada and NAV CANADA